Time;durP1;ratioP1;P1;durP2;ratioP2;P2;SDS_P1;SDS_P2;PMS_P1;PMS_P2;Temp;Humidity;BMP_temperature;BMP_pressure;BME280_temperature;BME280_humidity;BME280_pressure;Samples;Min_cycle;Max_cycle;Signal;HPM_P1;HPM_P2
2022/08/03 00:01:00;;;;;;;0.80;0.68;;;;;;;-148.14;100.00;65945.72;5054375;28;20021;-87
2022/08/03 00:03:26;;;;;;;0.90;0.88;;;;;;;-148.14;100.00;65945.72;5020262;28;20025;-85
2022/08/03 00:05:52;;;;;;;1.48;1.00;;;;;;;-148.14;100.00;65945.72;5008563;28;20479;-86
2022/08/03 00:08:18;;;;;;;0.95;0.85;;;;;;;-148.14;100.00;65945.72;5017075;28;20061;-87
2022/08/03 00:10:44;;;;;;;2.35;0.80;;;;;;;-148.14;100.00;65945.72;5016426;28;20154;-87
2022/08/03 00:13:11;;;;;;;0.88;0.85;;;;;;;-148.14;100.00;65945.72;5054670;28;20040;-87
2022/08/03 00:15:42;;;;;;;1.42;1.00;;;;;;;-148.14;100.00;65945.72;5054730;28;20059;-87
2022/08/03 00:18:08;;;;;;;1.38;1.00;;;;;;;-148.14;100.00;65945.72;5008863;28;20037;-88
2022/08/03 00:20:34;;;;;;;1.10;1.00;;;;;;;-148.14;100.00;65945.72;5034210;28;20494;-88
2022/08/03 00:23:00;;;;;;;2.00;0.90;;;;;;;-148.14;100.00;65945.72;5050362;28;20037;-85
2022/08/03 00:25:29;;;;;;;1.40;0.70;;;;;;;-148.14;100.00;65945.72;5036068;28;20055;-89
2022/08/03 00:27:55;;;;;;;1.67;0.90;;;;;;;-148.14;100.00;65945.72;5053836;28;20064;-86
2022/08/03 00:30:20;;;;;;;1.00;0.90;;;;;;;-148.14;100.00;65945.72;5053871;28;20479;-86
2022/08/03 00:32:46;;;;;;;2.15;0.90;;;;;;;-148.14;100.00;65945.72;5037583;28;20067;-89
2022/08/03 00:35:12;;;;;;;0.85;0.82;;;;;;;-148.14;100.00;65945.72;5023490;28;20033;-90
2022/08/03 00:37:38;;;;;;;1.15;1.00;;;;;;;-148.14;100.00;65945.72;5021635;28;20029;-88
2022/08/03 00:40:05;;;;;;;1.92;0.93;;;;;;;-148.14;100.00;65945.72;5018887;28;20052;-88
2022/08/03 00:42:31;;;;;;;1.15;0.90;;;;;;;-148.14;100.00;65945.72;5000455;28;20458;-87
2022/08/03 00:44:58;;;;;;;1.20;0.90;;;;;;;-148.14;100.00;65945.72;5035656;28;20108;-88
2022/08/03 00:47:23;;;;;;;1.30;1.10;;;;;;;-148.14;100.00;65945.72;5018110;28;20076;-87
2022/08/03 00:49:49;;;;;;;1.33;0.98;;;;;;;-148.14;100.00;65945.72;5018539;28;20029;-87
2022/08/03 00:52:16;;;;;;;1.45;1.00;;;;;;;-148.14;100.00;65945.72;5003034;28;20048;-89
2022/08/03 00:54:42;;;;;;;1.10;1.00;;;;;;;-148.14;100.00;65945.72;5001325;28;20037;-86
2022/08/03 00:57:08;;;;;;;1.13;1.02;;;;;;;-148.14;100.00;65945.72;5019160;28;20068;-87
2022/08/03 00:59:34;;;;;;;0.90;0.90;;;;;;;-148.14;100.00;65945.72;5022182;28;20083;-89
2022/08/03 01:01:59;;;;;;;1.02;0.93;;;;;;;-148.14;100.00;65945.72;5022251;28;20083;-88
2022/08/03 01:04:25;;;;;;;1.17;0.98;;;;;;;-148.14;100.00;65945.72;5036314;28;20087;-87
2022/08/03 01:07:11;;;;;;;2.35;0.75;;;;;;;-148.14;100.00;65945.72;5036455;28;20491;-87
2022/08/03 01:09:46;;;;;;;0.70;0.70;;;;;;;-148.14;100.00;65945.72;5053514;28;20033;-87
2022/08/03 01:12:17;;;;;;;1.48;0.70;;;;;;;-148.14;100.00;65945.72;5039226;28;20029;-87
2022/08/03 01:14:54;;;;;;;2.45;1.10;;;;;;;-148.14;100.00;65945.72;5014724;28;20043;-87
2022/08/03 01:18:02;;;;;;;0.70;0.65;;;;;;;-148.14;100.00;65945.72;5053528;28;20555;-88
2022/08/03 01:20:34;;;;;;;1.65;0.70;;;;;;;-148.14;100.00;65945.72;5010464;28;20129;-88
2022/08/03 01:23:22;;;;;;;3.47;0.90;;;;;;;-148.14;100.00;65945.72;5053063;28;20032;-88
2022/08/03 01:25:47;;;;;;;1.30;0.70;;;;;;;-148.14;100.00;65945.72;5050276;28;20029;-87
2022/08/03 01:28:49;;;;;;;4.50;0.90;;;;;;;-148.14;100.00;65945.72;5054134;28;20423;-87
2022/08/03 01:31:21;;;;;;;1.67;0.93;;;;;;;-148.14;100.00;65945.72;5042503;28;20045;-86
2022/08/03 01:33:51;;;;;;;1.33;0.80;;;;;;;-148.14;100.00;65945.72;5019136;28;20395;-86
2022/08/03 01:36:23;;;;;;;2.53;0.85;;;;;;;-148.14;100.00;65945.72;5015692;28;20033;-85
2022/08/03 01:39:01;;;;;;;0.77;0.77;;;;;;;-148.14;100.00;65945.72;5051382;28;20036;-84
2022/08/03 01:41:32;;;;;;;1.35;1.10;;;;;;;-148.14;100.00;65945.72;5013031;28;20124;-87
2022/08/03 01:44:01;;;;;;;0.80;0.80;;;;;;;-148.14;100.00;65945.72;5017267;28;20034;-85
2022/08/03 01:46:30;;;;;;;1.27;0.90;;;;;;;-148.14;100.00;65945.72;5033674;28;20029;-86
2022/08/03 01:48:57;;;;;;;2.95;0.80;;;;;;;-148.14;100.00;65945.72;5035859;28;20044;-86
2022/08/03 01:51:23;;;;;;;0.90;0.77;;;;;;;-148.14;100.00;65945.72;5053022;28;20110;-88
2022/08/03 01:53:53;;;;;;;0.73;0.73;;;;;;;-148.14;100.00;65945.72;5035686;28;20045;-87
2022/08/03 01:56:24;;;;;;;1.42;0.80;;;;;;;-148.14;100.00;65945.72;5038992;28;20036;-89
2022/08/03 01:58:53;;;;;;;1.55;0.95;;;;;;;-148.14;100.00;65945.72;5050537;28;20029;-86
2022/08/03 02:01:21;;;;;;;1.38;0.90;;;;;;;-148.14;100.00;65945.72;5000895;28;20056;-90
2022/08/03 02:03:49;;;;;;;3.03;0.80;;;;;;;-148.14;100.00;65945.72;5022363;28;20040;-87
2022/08/03 02:06:18;;;;;;;0.70;0.70;;;;;;;-148.14;100.00;65945.72;5019887;28;20033;-87
2022/08/03 02:08:47;;;;;;;1.17;0.77;;;;;;;-148.14;100.00;65945.72;5036332;28;20483;-85
2022/08/03 02:11:13;;;;;;;1.27;0.80;;;;;;;-148.14;100.00;65945.72;5054854;28;20486;-89
2022/08/03 02:13:39;;;;;;;0.70;0.70;;;;;;;-148.14;100.00;65945.72;5056957;28;20024;-87
2022/08/03 02:16:06;;;;;;;0.70;0.70;;;;;;;-148.14;100.00;65945.72;5032577;28;20037;-85
2022/08/03 02:18:33;;;;;;;2.03;0.70;;;;;;;-148.14;100.00;65945.72;5056352;28;20044;-84
2022/08/03 02:21:03;;;;;;;1.85;0.70;;;;;;;-148.14;100.00;65945.72;5027718;28;20034;-86
2022/08/03 02:23:30;;;;;;;0.52;0.52;;;;;;;-148.14;100.00;65945.72;5019990;28;20039;-84
2022/08/03 02:26:02;;;;;;;0.77;0.50;;;;;;;-148.14;100.00;65945.72;5055852;28;20029;-84
2022/08/03 02:28:40;;;;;;;0.68;0.60;;;;;;;-148.14;100.00;65945.72;5054809;28;20040;-86
2022/08/03 02:31:12;;;;;;;1.50;0.60;;;;;;;-148.14;100.00;65945.72;5012105;28;20049;-86
2022/08/03 02:33:47;;;;;;;0.68;0.68;;;;;;;-148.14;100.00;65945.72;5035956;28;20033;-85
2022/08/03 02:36:14;;;;;;;1.45;0.60;;;;;;;-148.14;100.00;65945.72;5019712;28;20033;-86
2022/08/03 02:38:43;;;;;;;0.60;0.60;;;;;;;-148.14;100.00;65945.72;5046710;28;20037;-86
2022/08/03 02:41:16;;;;;;;0.55;0.55;;;;;;;-148.14;100.00;65945.72;5018129;28;20033;-86
2022/08/03 02:43:48;;;;;;;1.92;0.70;;;;;;;-148.14;100.00;65945.72;5044162;28;20025;-86
2022/08/03 02:46:18;;;;;;;0.50;0.50;;;;;;;-148.14;100.00;65945.72;5037767;28;20149;-86
2022/08/03 02:48:46;;;;;;;1.58;0.60;;;;;;;-148.14;100.00;65945.72;5048579;28;20037;-84
2022/08/03 02:51:13;;;;;;;0.60;0.60;;;;;;;-148.14;100.00;65945.72;5030601;28;20543;-84
2022/08/03 02:53:39;;;;;;;1.17;0.65;;;;;;;-148.14;100.00;65945.72;5034472;28;20033;-85
2022/08/03 02:56:08;;;;;;;1.35;0.80;;;;;;;-148.14;100.00;65945.72;5043608;28;20029;-84
2022/08/03 02:58:37;;;;;;;0.95;0.73;;;;;;;-148.14;100.00;65945.72;5052713;28;20141;-85
2022/08/03 03:01:04;;;;;;;2.65;0.90;;;;;;;-148.14;100.00;65945.72;5055326;28;20029;-85
2022/08/03 03:03:31;;;;;;;0.70;0.70;;;;;;;-148.14;100.00;65945.72;5014912;28;20025;-84
2022/08/03 03:06:01;;;;;;;0.52;0.52;;;;;;;-148.14;100.00;65945.72;5019624;28;20112;-86
2022/08/03 03:08:30;;;;;;;1.52;0.70;;;;;;;-148.14;100.00;65945.72;5030159;28;20072;-86
2022/08/03 03:10:59;;;;;;;0.82;0.73;;;;;;;-148.14;100.00;65945.72;5045901;28;20059;-85
2022/08/03 03:13:29;;;;;;;0.80;0.80;;;;;;;-148.14;100.00;65945.72;5041178;28;20113;-85
2022/08/03 03:16:01;;;;;;;0.80;0.80;;;;;;;-148.14;100.00;65945.72;5027722;28;20040;-84
2022/08/03 03:18:28;;;;;;;1.05;0.70;;;;;;;-148.14;100.00;65945.72;5013796;28;20506;-83
2022/08/03 03:20:55;;;;;;;0.70;0.70;;;;;;;-148.14;100.00;65945.72;5045574;28;20025;-84
2022/08/03 03:23:23;;;;;;;1.00;0.98;;;;;;;-148.14;100.00;65945.72;5007937;28;20029;-84
2022/08/03 03:25:51;;;;;;;1.27;0.80;;;;;;;-148.14;100.00;65945.72;5014918;28;20033;-86
2022/08/03 03:28:17;;;;;;;2.58;0.82;;;;;;;-148.14;100.00;65945.72;5023177;28;20061;-86
2022/08/03 03:30:43;;;;;;;2.75;0.90;;;;;;;-148.14;100.00;65945.72;5003418;28;20467;-85
2022/08/03 03:33:09;;;;;;;0.90;0.90;;;;;;;-148.14;100.00;65945.72;5015205;28;20439;-83
2022/08/03 03:35:35;;;;;;;1.58;0.85;;;;;;;-148.14;100.00;65945.72;5016548;28;20068;-85
2022/08/03 03:38:00;;;;;;;1.90;0.90;;;;;;;-148.14;100.00;65945.72;5010716;28;20029;-85
2022/08/03 03:40:26;;;;;;;1.80;1.10;;;;;;;-148.14;100.00;65945.72;5028611;28;20691;-85
2022/08/03 03:42:52;;;;;;;1.05;0.95;;;;;;;-148.14;100.00;65945.72;5010567;28;20032;-84
2022/08/03 03:45:19;;;;;;;1.00;1.00;;;;;;;-148.14;100.00;65945.72;4999715;28;20467;-85
2022/08/03 03:47:45;;;;;;;1.10;1.02;;;;;;;-148.14;100.00;65945.72;5015512;28;20128;-84
2022/08/03 03:50:11;;;;;;;2.42;0.90;;;;;;;-148.14;100.00;65945.72;5028220;28;20079;-84
2022/08/03 03:52:37;;;;;;;1.23;1.08;;;;;;;-148.14;100.00;65945.72;4999446;28;20033;-84
2022/08/03 03:55:03;;;;;;;1.20;1.10;;;;;;;-148.14;100.00;65945.72;4997238;28;20176;-85
2022/08/03 03:57:28;;;;;;;2.33;1.10;;;;;;;-148.14;100.00;65945.72;5016018;28;20437;-86
2022/08/03 03:59:54;;;;;;;2.95;1.00;;;;;;;-148.14;100.00;65945.72;5000136;28;20533;-84
2022/08/03 04:02:20;;;;;;;2.05;1.13;;;;;;;-148.14;100.00;65945.72;5022556;28;20032;-86
2022/08/03 04:10:59;;;;;;;1.17;1.08;;;;;;;-148.14;100.00;65945.72;5016550;28;20033;-88
2022/08/03 04:13:34;;;;;;;1.00;0.90;;;;;;;-148.14;100.00;65945.72;5014138;28;20598;-86
2022/08/03 04:16:00;;;;;;;1.20;1.10;;;;;;;-148.14;100.00;65945.72;4997756;28;20415;-89
2022/08/03 04:18:30;;;;;;;2.30;1.13;;;;;;;-148.14;100.00;65945.72;5016042;28;20503;-85
2022/08/03 04:20:57;;;;;;;1.20;1.10;;;;;;;-148.14;100.00;65945.72;5018663;28;20057;-88
2022/08/03 04:23:26;;;;;;;2.65;1.20;;;;;;;-148.14;100.00;65945.72;5021582;28;20034;-90
2022/08/03 04:25:55;;;;;;;4.53;0.90;;;;;;;-148.14;100.00;65945.72;4998334;28;20033;-87
2022/08/03 04:28:22;;;;;;;0.80;0.80;;;;;;;-148.14;100.00;65945.72;5004487;28;20056;-86
2022/08/03 04:30:51;;;;;;;4.60;1.00;;;;;;;-148.14;100.00;65945.72;5018801;28;20034;-86
2022/08/03 04:33:18;;;;;;;1.02;0.93;;;;;;;-148.14;100.00;65945.72;5040723;28;20044;-87
2022/08/03 04:35:46;;;;;;;1.45;0.80;;;;;;;-148.14;100.00;65945.72;5046635;28;20037;-86
2022/08/03 04:38:17;;;;;;;1.13;1.02;;;;;;;-148.14;100.00;65945.72;5058925;28;20507;-85
2022/08/03 04:40:45;;;;;;;1.33;0.90;;;;;;;-148.14;100.00;65945.72;5023347;28;20036;-87
2022/08/03 04:43:13;;;;;;;1.40;1.00;;;;;;;-148.14;100.00;65945.72;5037709;28;20033;-87
2022/08/03 04:45:40;;;;;;;2.50;0.90;;;;;;;-148.14;100.00;65945.72;5036683;28;20047;-86
2022/08/03 04:48:06;;;;;;;1.42;1.08;;;;;;;-148.14;100.00;65945.72;5036548;28;20378;-87
2022/08/03 04:50:35;;;;;;;1.58;1.15;;;;;;;-148.14;100.00;65945.72;5036887;28;20039;-86
2022/08/03 04:53:02;;;;;;;1.42;0.90;;;;;;;-148.14;100.00;65945.72;5037158;28;20037;-87
2022/08/03 04:55:29;;;;;;;1.23;1.00;;;;;;;-148.14;100.00;65945.72;5036432;28;20174;-89
2022/08/03 05:00:51;;;;;;;2.35;1.17;;;;;;;-148.14;100.00;65945.72;5039699;28;20021;-85
2022/08/03 05:03:16;;;;;;;3.25;1.00;;;;;;;-148.14;100.00;65945.72;5031386;28;20033;-85
2022/08/03 05:05:42;;;;;;;1.85;1.08;;;;;;;-148.14;100.00;65945.72;5052335;28;20059;-87
2022/08/03 05:08:09;;;;;;;1.27;1.08;;;;;;;-148.14;100.00;65945.72;5017992;28;20786;-87
2022/08/03 05:10:38;;;;;;;4.30;1.45;;;;;;;-148.14;100.00;65945.72;5019200;28;20031;-87
2022/08/03 05:13:04;;;;;;;5.03;1.38;;;;;;;-148.14;100.00;65945.72;5027454;28;20418;-86
2022/08/03 05:15:30;;;;;;;3.60;1.50;;;;;;;-148.14;100.00;65945.72;5033596;28;20479;-85
2022/08/03 05:17:56;;;;;;;5.13;1.50;;;;;;;-148.14;100.00;65945.72;5040565;28;20116;-84
2022/08/03 05:20:24;;;;;;;2.40;1.20;;;;;;;-148.14;100.00;65945.72;5051669;28;20051;-84
2022/08/03 05:22:50;;;;;;;1.45;1.35;;;;;;;-148.14;100.00;65945.72;5027606;28;20434;-85
2022/08/03 05:25:16;;;;;;;2.45;1.30;;;;;;;-148.14;100.00;65945.72;5026183;28;20040;-87
2022/08/03 05:27:41;;;;;;;1.42;1.33;;;;;;;-148.14;100.00;65945.72;5010122;28;20037;-85
2022/08/03 05:30:08;;;;;;;2.08;1.42;;;;;;;-148.14;100.00;65945.72;5026999;28;20024;-87
2022/08/03 05:32:33;;;;;;;2.75;1.60;;;;;;;-148.14;100.00;65945.72;5017462;28;20052;-86
2022/08/03 05:34:59;;;;;;;2.60;1.27;;;;;;;-148.14;100.00;65945.72;5030346;28;20036;-84
2022/08/03 05:37:25;;;;;;;1.38;1.20;;;;;;;-148.14;100.00;65945.72;5026993;28;20059;-86
2022/08/03 05:39:51;;;;;;;3.40;2.13;;;;;;;-148.14;100.00;65945.72;5052392;28;20094;-87
2022/08/03 05:42:18;;;;;;;2.08;1.40;;;;;;;-148.14;100.00;65945.72;5030821;28;20419;-85
2022/08/03 05:44:43;;;;;;;1.25;1.05;;;;;;;-148.14;100.00;65945.72;5030893;28;20117;-86
2022/08/03 05:47:09;;;;;;;2.35;1.00;;;;;;;-148.14;100.00;65945.72;5030470;28;20025;-86
2022/08/03 05:49:36;;;;;;;4.57;1.30;;;;;;;-148.14;100.00;65945.72;5031236;28;20044;-86
2022/08/03 05:52:01;;;;;;;1.88;1.52;;;;;;;-148.14;100.00;65945.72;5021633;28;20029;-86
2022/08/03 05:54:27;;;;;;;2.60;1.67;;;;;;;-148.14;100.00;65945.72;5056607;28;20024;-87
2022/08/03 05:56:55;;;;;;;3.20;1.80;;;;;;;-148.14;100.00;65945.72;5056755;28;20036;-85
2022/08/03 05:59:20;;;;;;;1.77;1.33;;;;;;;-148.14;100.00;65945.72;5035625;28;20033;-85
2022/08/03 06:01:47;;;;;;;2.92;1.67;;;;;;;-148.14;100.00;65945.72;5034555;28;20478;-85
2022/08/03 06:04:12;;;;;;;2.00;1.58;;;;;;;-148.14;100.00;65945.72;5051466;28;20029;-84
2022/08/03 06:06:38;;;;;;;2.92;1.50;;;;;;;-148.14;100.00;65945.72;5011289;28;20060;-84
2022/08/03 06:09:04;;;;;;;3.30;1.65;;;;;;;-148.14;100.00;65945.72;5033134;28;20082;-83
2022/08/03 06:11:29;;;;;;;2.75;1.50;;;;;;;-148.14;100.00;65945.72;5027796;28;20033;-86
2022/08/03 06:14:03;;;;;;;2.60;1.65;;;;;;;-148.14;100.00;65945.72;5050277;28;20059;-83
2022/08/03 06:16:28;;;;;;;2.78;1.70;;;;;;;-148.14;100.00;65945.72;5026410;28;20040;-84
2022/08/03 06:18:54;;;;;;;3.10;1.38;;;;;;;-148.14;100.00;65945.72;5028130;28;20029;-87
2022/08/03 06:21:20;;;;;;;2.53;1.40;;;;;;;-148.14;100.00;65945.72;5055605;28;20043;-85
2022/08/03 06:23:46;;;;;;;2.45;1.70;;;;;;;-148.14;100.00;65945.72;5036015;28;20025;-87
2022/08/03 06:26:15;;;;;;;4.57;1.85;;;;;;;-148.14;100.00;65945.72;5057149;28;20036;-87
2022/08/03 06:28:50;;;;;;;4.97;1.50;;;;;;;-148.14;100.00;65945.72;5056618;28;20561;-85
2022/08/03 06:31:16;;;;;;;4.70;1.80;;;;;;;-148.14;100.00;65945.72;5026093;28;20045;-89
2022/08/03 06:33:44;;;;;;;3.47;1.48;;;;;;;-148.14;100.00;65945.72;5030933;28;20067;-86
2022/08/03 06:36:16;;;;;;;3.22;1.70;;;;;;;-148.14;100.00;65945.72;5041919;28;20082;-87
2022/08/03 06:38:42;;;;;;;5.85;1.85;;;;;;;-148.14;100.00;65945.72;5029292;28;20113;-83
2022/08/03 06:41:08;;;;;;;2.00;1.55;;;;;;;-148.14;100.00;65945.72;5027146;28;20120;-84
2022/08/03 06:43:36;;;;;;;3.35;1.50;;;;;;;-148.14;100.00;65945.72;5040622;28;20033;-87
2022/08/03 06:46:04;;;;;;;3.38;1.73;;;;;;;-148.14;100.00;65945.72;5039650;28;20586;-86
2022/08/03 06:48:34;;;;;;;4.20;2.17;;;;;;;-148.14;100.00;65945.72;5018725;28;20029;-85
2022/08/03 06:51:03;;;;;;;3.58;1.90;;;;;;;-148.14;100.00;65945.72;5046566;28;20030;-87
2022/08/03 06:53:31;;;;;;;4.07;2.17;;;;;;;-148.14;100.00;65945.72;5033081;28;20060;-87
2022/08/03 06:55:58;;;;;;;3.67;1.70;;;;;;;-148.14;100.00;65945.72;5013272;28;20046;-84
2022/08/03 06:58:24;;;;;;;4.40;2.20;;;;;;;-148.14;100.00;65945.72;5053554;28;20111;-82
2022/08/03 07:00:50;;;;;;;3.15;2.00;;;;;;;-148.14;100.00;65945.72;5017411;28;20033;-82
2022/08/03 07:03:16;;;;;;;6.25;2.50;;;;;;;-148.14;100.00;65945.72;5053779;28;20044;-82
2022/08/03 07:05:44;;;;;;;4.88;2.10;;;;;;;-148.14;100.00;65945.72;5053965;28;20028;-81
2022/08/03 07:08:11;;;;;;;18.52;4.75;;;;;;;-148.14;100.00;65945.72;5038690;28;20029;-80
2022/08/03 07:10:37;;;;;;;10.55;3.13;;;;;;;-148.14;100.00;65945.72;5053581;28;20107;-82
2022/08/03 07:13:10;;;;;;;7.38;2.90;;;;;;;-148.14;100.00;65945.72;5029009;28;20035;-83
2022/08/03 07:15:36;;;;;;;4.80;2.40;;;;;;;-148.14;100.00;65945.72;5025886;28;20056;-87
2022/08/03 07:18:02;;;;;;;6.63;2.47;;;;;;;-148.14;100.00;65945.72;5058902;28;20025;-89
2022/08/03 07:20:28;;;;;;;6.82;2.75;;;;;;;-148.14;100.00;65945.72;5028318;28;20043;-89
2022/08/03 07:23:02;;;;;;;6.18;2.45;;;;;;;-148.14;100.00;65945.72;5024487;28;20041;-90
2022/08/03 07:25:29;;;;;;;7.10;2.65;;;;;;;-148.14;100.00;65945.72;5074426;28;20032;-89
2022/08/03 07:27:55;;;;;;;8.00;3.17;;;;;;;-148.14;100.00;65945.72;5020288;28;20057;-89
2022/08/03 07:30:22;;;;;;;7.13;2.80;;;;;;;-148.14;100.00;65945.72;5039703;28;20036;-90
2022/08/03 07:36:57;;;;;;;4.88;2.88;;;;;;;-148.14;100.00;65945.72;5062710;28;20032;-91
2022/08/03 07:39:49;;;;;;;3.85;2.60;;;;;;;-148.14;100.00;65945.72;5055127;28;20009;-90
2022/08/03 07:42:16;;;;;;;5.75;2.90;;;;;;;-148.14;100.00;65945.72;5029113;28;20020;-88
2022/08/03 07:44:42;;;;;;;6.40;3.05;;;;;;;-148.14;100.00;65945.72;5025556;28;20033;-86
2022/08/03 07:47:09;;;;;;;4.45;2.85;;;;;;;-148.14;100.00;65945.72;5058593;28;20083;-88
2022/08/03 07:49:40;;;;;;;8.88;2.97;;;;;;;-148.14;100.00;65945.72;5056296;28;20053;-86
2022/08/03 07:54:50;;;;;;;5.78;3.33;;;;;;;-148.14;100.00;65945.72;5068497;28;20045;-89
2022/08/03 07:57:15;;;;;;;5.55;2.70;;;;;;;-148.14;100.00;65945.72;5050525;28;20040;-89
2022/08/03 07:59:41;;;;;;;8.27;3.03;;;;;;;-148.14;100.00;65945.72;5054860;28;20043;-88
2022/08/03 08:02:07;;;;;;;7.22;2.95;;;;;;;-148.14;100.00;65945.72;5088786;22;1349824;-85
2022/08/03 08:04:33;;;;;;;12.25;3.22;;;;;;;-148.14;100.00;65945.72;5035072;28;20466;-85
2022/08/03 08:06:58;;;;;;;9.82;3.40;;;;;;;-148.14;100.00;65945.72;5030187;28;20132;-86
2022/08/03 08:09:24;;;;;;;9.15;3.20;;;;;;;-148.14;100.00;65945.72;5046700;28;20024;-84
2022/08/03 08:11:50;;;;;;;5.57;3.40;;;;;;;-148.14;100.00;65945.72;5049977;28;20125;-87
2022/08/03 08:14:16;;;;;;;7.65;3.40;;;;;;;-148.14;100.00;65945.72;5037030;28;20082;-85
2022/08/03 08:16:42;;;;;;;7.35;2.90;;;;;;;-148.14;100.00;65945.72;5030375;28;20025;-86
2022/08/03 08:19:07;;;;;;;4.47;2.90;;;;;;;-148.14;100.00;65945.72;5036830;28;20120;-84
2022/08/03 08:21:33;;;;;;;6.10;3.50;;;;;;;-148.14;100.00;65945.72;5020542;28;20036;-84
2022/08/03 08:23:58;;;;;;;3.42;2.83;;;;;;;-148.14;100.00;65945.72;5029843;28;20108;-86
2022/08/03 08:26:24;;;;;;;4.65;3.25;;;;;;;-148.14;100.00;65945.72;5037543;28;20039;-84
2022/08/03 08:28:51;;;;;;;7.35;2.92;;;;;;;-148.14;100.00;65945.72;5025313;28;20029;-86
2022/08/03 08:31:17;;;;;;;9.88;3.08;;;;;;;-148.14;100.00;65945.72;5029069;28;20029;-85
2022/08/03 08:33:44;;;;;;;39.10;6.95;;;;;;;-148.14;100.00;65945.72;5054039;28;20044;-86
2022/08/03 08:36:09;;;;;;;7.85;2.85;;;;;;;-148.14;100.00;65945.72;5053617;28;20025;-85
2022/08/03 08:38:35;;;;;;;7.13;2.75;;;;;;;-148.14;100.00;65945.72;5034075;28;20025;-86
2022/08/03 08:41:00;;;;;;;3.05;2.50;;;;;;;-148.14;100.00;65945.72;5052390;28;20057;-89
2022/08/03 08:43:27;;;;;;;6.88;2.70;;;;;;;-148.14;100.00;65945.72;5027289;28;20035;-86
2022/08/03 08:45:53;;;;;;;5.63;2.33;;;;;;;-148.14;100.00;65945.72;5023839;28;20040;-85
2022/08/03 08:48:24;;;;;;;6.10;2.72;;;;;;;-148.14;100.00;65945.72;5024875;28;20116;-85
2022/08/03 08:50:54;;;;;;;4.43;2.80;;;;;;;-148.14;100.00;65945.72;5018279;28;20127;-86
2022/08/03 08:53:27;;;;;;;5.93;2.80;;;;;;;-148.14;100.00;65945.72;5034928;28;20031;-87
2022/08/03 08:55:54;;;;;;;;;;;;;;;-148.14;100.00;65945.72;5025358;28;20055;-86
2022/08/03 08:58:22;;;;;;;4.03;2.80;;;;;;;-148.14;100.00;65945.72;5051832;28;20355;-86
2022/08/03 09:00:49;;;;;;;4.30;2.60;;;;;;;-148.14;100.00;65945.72;5018713;28;20028;-85
2022/08/03 09:03:18;;;;;;;3.90;2.50;;;;;;;-148.14;100.00;65945.72;5034322;28;20527;-85
2022/08/03 09:05:44;;;;;;;3.20;2.90;;;;;;;-148.14;100.00;65945.72;5009888;28;20049;-88
2022/08/03 09:08:13;;;;;;;7.47;3.00;;;;;;;-148.14;100.00;65945.72;5024471;28;20037;-85
2022/08/03 09:10:40;;;;;;;7.32;3.33;;;;;;;-148.14;100.00;65945.72;5050576;28;20507;-87
2022/08/03 09:13:09;;;;;;;9.00;3.00;;;;;;;-148.14;100.00;65945.72;5022560;28;20029;-86
2022/08/03 09:15:37;;;;;;;6.03;2.90;;;;;;;-148.14;100.00;65945.72;5035187;28;20162;-85
2022/08/03 09:18:12;;;;;;;5.93;2.67;;;;;;;-148.14;100.00;65945.72;5011319;28;20175;-85
2022/08/03 09:20:38;;;;;;;5.45;2.67;;;;;;;-148.14;100.00;65945.72;5021203;28;20497;-85
2022/08/03 09:23:11;;;;;;;5.30;2.90;;;;;;;-148.14;100.00;65945.72;5028061;28;20021;-85
2022/08/03 09:25:42;;;;;;;5.90;2.92;;;;;;;-148.14;100.00;65945.72;5031469;28;20507;-85
2022/08/03 09:28:17;;;;;;;4.55;2.90;;;;;;;-148.14;100.00;65945.72;5018034;28;20371;-85
2022/08/03 09:30:57;;;;;;;8.88;3.00;;;;;;;-148.14;100.00;65945.72;5012223;28;20507;-85
2022/08/03 09:33:23;;;;;;;7.43;3.47;;;;;;;-148.14;100.00;65945.72;5027174;28;20414;-84
2022/08/03 09:35:49;;;;;;;10.50;3.88;;;;;;;-148.14;100.00;65945.72;5030068;28;20102;-86
2022/08/03 09:38:25;;;;;;;11.57;3.78;;;;;;;-148.14;100.00;65945.72;5034356;28;20107;-87
2022/08/03 09:40:55;;;;;;;9.40;3.13;;;;;;;-148.14;100.00;65945.72;5026913;28;20056;-87
2022/08/03 09:43:21;;;;;;;8.05;3.05;;;;;;;-148.14;100.00;65945.72;5010589;28;20029;-86
2022/08/03 09:45:47;;;;;;;7.82;3.05;;;;;;;-148.14;100.00;65945.72;5034531;28;20036;-85
2022/08/03 09:48:20;;;;;;;6.13;2.90;;;;;;;-148.14;100.00;65945.72;5014342;28;20390;-86
2022/08/03 09:50:54;;;;;;;6.22;3.00;;;;;;;-148.14;100.00;65945.72;5010931;28;20029;-85
2022/08/03 09:53:20;;;;;;;9.48;4.00;;;;;;;-148.14;100.00;65945.72;5027351;28;20029;-88
2022/08/03 09:55:55;;;;;;;3.47;2.92;;;;;;;-148.14;100.00;65945.72;5052413;28;20036;-84
2022/08/03 09:58:22;;;;;;;4.82;3.25;;;;;;;-148.14;100.00;65945.72;5025693;28;20040;-85
2022/08/03 10:00:57;;;;;;;8.15;3.85;;;;;;;-148.14;100.00;65945.72;5018117;28;20017;-85
2022/08/03 10:03:25;;;;;;;5.57;3.83;;;;;;;-148.14;100.00;65945.72;5021301;28;20076;-86
2022/08/03 10:05:51;;;;;;;5.75;3.25;;;;;;;-148.14;100.00;65945.72;5009057;28;20033;-84
2022/08/03 10:08:19;;;;;;;6.80;4.15;;;;;;;-148.14;100.00;65945.72;5041717;28;20028;-86
2022/08/03 10:10:48;;;;;;;6.70;3.40;;;;;;;-148.14;100.00;65945.72;5034305;28;20040;-86
2022/08/03 10:13:16;;;;;;;7.85;3.70;;;;;;;-148.14;100.00;65945.72;5051928;28;20083;-85
2022/08/03 10:15:42;;;;;;;5.15;3.50;;;;;;;-148.14;100.00;65945.72;5025718;28;20053;-86
2022/08/03 10:18:08;;;;;;;6.65;3.63;;;;;;;-148.14;100.00;65945.72;5049378;28;20096;-90
2022/08/03 10:20:39;;;;;;;5.45;3.40;;;;;;;-148.14;100.00;65945.72;5034375;28;20025;-85
2022/08/03 10:23:07;;;;;;;8.75;3.55;;;;;;;-148.14;100.00;65945.72;5032524;28;20120;-86
2022/08/03 10:25:36;;;;;;;4.63;3.60;;;;;;;-148.14;100.00;65945.72;5008423;28;20038;-84
2022/08/03 10:28:04;;;;;;;5.82;3.35;;;;;;;-148.14;100.00;65945.72;5017184;28;20475;-85
2022/08/03 10:30:31;;;;;;;5.10;3.38;;;;;;;-148.14;100.00;65945.72;5021435;28;20025;-85
2022/08/03 10:33:16;;;;;;;5.90;4.10;;;;;;;-148.14;100.00;65945.72;5012111;28;20475;-84
2022/08/03 10:35:44;;;;;;;6.13;3.42;;;;;;;-148.14;100.00;65945.72;5016090;28;20033;-85
2022/08/03 10:38:15;;;;;;;6.20;3.92;;;;;;;-148.14;100.00;65945.72;5021236;28;20033;-85
2022/08/03 10:40:42;;;;;;;8.95;4.10;;;;;;;-148.14;100.00;65945.72;5029161;28;20479;-84
2022/08/03 10:43:21;;;;;;;6.57;3.72;;;;;;;-148.14;100.00;65945.72;5026274;28;20036;-85
2022/08/03 10:45:47;;;;;;;4.78;3.40;;;;;;;-148.14;100.00;65945.72;5046915;28;20033;-86
2022/08/03 10:48:14;;;;;;;7.93;4.40;;;;;;;-148.14;100.00;65945.72;5007211;28;20111;-86
2022/08/03 10:50:42;;;;;;;8.93;3.85;;;;;;;-148.14;100.00;65945.72;5029994;28;20051;-85
2022/08/03 10:53:08;;;;;;;6.68;3.90;;;;;;;-148.14;100.00;65945.72;5024621;28;20033;-86
2022/08/03 10:58:37;;;;;;;7.88;3.63;;;;;;;-148.14;100.00;65945.72;5037262;28;20040;-86
2022/08/03 11:01:05;;;;;;;7.03;3.75;;;;;;;-148.14;100.00;65945.72;5054661;28;20059;-84
2022/08/03 11:03:31;;;;;;;8.00;3.97;;;;;;;-148.14;100.00;65945.72;5026214;28;20057;-85
2022/08/03 11:06:24;;;;;;;8.80;4.43;;;;;;;-148.14;100.00;65945.72;5016960;28;20037;-86
2022/08/03 11:09:08;;;;;;;8.20;3.77;;;;;;;-148.14;100.00;65945.72;4998882;28;20084;-85
2022/08/03 11:11:35;;;;;;;5.57;3.85;;;;;;;-148.14;100.00;65945.72;5000970;28;20033;-86
2022/08/03 11:14:10;;;;;;;8.43;4.20;;;;;;;-148.14;100.00;65945.72;5016761;28;20116;-86
2022/08/03 11:17:05;;;;;;;7.78;3.90;;;;;;;-148.14;100.00;65945.72;5017264;28;20088;-86
2022/08/03 11:19:45;;;;;;;7.43;4.18;;;;;;;-148.14;100.00;65945.72;5029789;28;20559;-86
2022/08/03 11:22:12;;;;;;;7.55;4.28;;;;;;;-148.14;100.00;65945.72;5000879;28;20522;-86
2022/08/03 11:24:52;;;;;;;5.82;3.65;;;;;;;-148.14;100.00;65945.72;5033640;28;20025;-84
2022/08/03 11:27:26;;;;;;;5.65;3.78;;;;;;;-148.14;100.00;65945.72;5000497;28;20121;-84
2022/08/03 11:29:56;;;;;;;;;;;;;;;-148.14;100.00;65945.72;5017248;28;20044;-84
2022/08/03 11:32:37;;;;;;;7.78;3.83;;;;;;;-148.14;100.00;65945.72;5033647;28;19927;-85
2022/08/03 11:35:44;;;;;;;10.65;3.97;;;;;;;-148.14;100.00;65945.72;5015392;28;20560;-85